Catàleg de serveis del Meteocat
Campanya meteocatpedra

Dades de l'estació automàtica Port de Barcelona - Bocana Sud

?
?
Resum diari 20:00 TU
Dades diàries de l'estació meteorològica
Ratxa màxima del vent (10 m) 26.3 km/h - 300º 7:39 TU

El tram horari està expressat en Temps Universal (TU). Cal sumar una hora en horari d'hivern i dues en horari d'estiu per passar a l'hora oficial.

Port de Barcelona - Bocana Sud

Metadades estació meteorol´gica
Municipi El Prat de Llobregat
Comarca Baix Llobregat
Altitud 3 m
Data alta 08.04.2015
Estat actual Operativa
Dades de període
Període
TU
VVM (10 m)
km/h
DVM (10 m)
graus
VVX (10 m)
km/h
00:00 - 00:30 5.0 267 6.8
00:30 - 01:00 6.8 257 9.4
01:00 - 01:30 8.3 261 9.7
01:30 - 02:00 8.6 257 11.2
02:00 - 02:30 7.2 262 11.5
02:30 - 03:00 9.0 263 13.7
03:00 - 03:30 9.0 261 11.9
03:30 - 04:00 7.9 262 11.2
04:00 - 04:30 8.3 251 11.2
04:30 - 05:00 10.4 258 13.3
05:00 - 05:30 10.8 255 14.8
05:30 - 06:00 10.1 264 14.0
06:00 - 06:30 11.9 271 16.2
06:30 - 07:00 13.3 281 17.6
07:00 - 07:30 15.1 283 20.9
07:30 - 08:00 14.8 331 26.3
08:00 - 08:30 13.0 37 19.4
08:30 - 09:00 12.6 40 18.0
09:00 - 09:30 16.6 38 24.1
09:30 - 10:00 19.4 42 25.9
10:00 - 10:30 18.0 58 24.5
10:30 - 11:00 17.3 90 22.3
11:00 - 11:30 14.0 102 19.4
11:30 - 12:00 10.1 111 15.5
12:00 - 12:30 5.0 136 9.0
12:30 - 13:00 9.0 150 15.8
13:00 - 13:30 16.2 159 19.8
13:30 - 14:00 16.9 162 19.4
14:00 - 14:30 13.0 168 17.3
14:30 - 15:00 10.4 176 13.3
15:00 - 15:30 10.1 169 12.2
15:30 - 16:00 13.0 168 17.6
16:00 - 16:30 16.2 172 19.4
16:30 - 17:00 16.6 177 21.6
17:00 - 17:30 18.0 191 22.7
17:30 - 18:00 18.0 195 23.4
18:00 - 18:30 16.6 189 21.2
18:30 - 19:00 11.9 190 14.8
19:00 - 19:30 9.4 190 11.5
19:30 - 20:00 7.6 190 8.6
20:00 - 20:30 4.3 199 6.5
20:30 - 21:00 (s/d) (s/d) (s/d)

Les dades en taronja només han passat un control de qualitat automàtic. Resta pendent la seva validació definitiva.